sensor_id;sensor_type;location;lat;lon;timestamp;pressure;altitude;pressure_sealevel;temperature;humidity
33795;BME280;51430;52.242;21.118;2023-02-20T00:00:24;100418.84;;;2.01;79.22
33795;BME280;51430;52.242;21.118;2023-02-20T00:03:23;100408.80;;;2.03;79.10
33795;BME280;51430;52.242;21.118;2023-02-20T00:06:08;100403.55;;;2.05;79.18
33795;BME280;51430;52.242;21.118;2023-02-20T00:08:54;100401.63;;;2.06;79.66
33795;BME280;51430;52.242;21.118;2023-02-20T00:11:39;100399.16;;;2.08;79.65
33795;BME280;51430;52.242;21.118;2023-02-20T00:14:24;100390.08;;;2.11;79.37
33795;BME280;51430;52.242;21.118;2023-02-20T00:17:09;100391.48;;;2.18;78.65
33795;BME280;51430;52.242;21.118;2023-02-20T00:19:54;100384.97;;;2.18;78.46
33795;BME280;51430;52.242;21.118;2023-02-20T00:22:40;100378.59;;;2.14;78.31
33795;BME280;51430;52.242;21.118;2023-02-20T00:25:25;100379.33;;;2.25;78.05
33795;BME280;51430;52.242;21.118;2023-02-20T00:28:10;100379.12;;;2.27;77.59
33795;BME280;51430;52.242;21.118;2023-02-20T00:30:55;100378.44;;;2.26;77.42
33795;BME280;51430;52.242;21.118;2023-02-20T00:33:41;100378.42;;;2.35;76.58
33795;BME280;51430;52.242;21.118;2023-02-20T00:36:27;100374.84;;;2.42;76.25
33795;BME280;51430;52.242;21.118;2023-02-20T00:39:12;100380.02;;;2.42;75.56
33795;BME280;51430;52.242;21.118;2023-02-20T00:41:57;100380.29;;;2.48;75.48
33795;BME280;51430;52.242;21.118;2023-02-20T00:44:42;100381.07;;;2.49;74.95
33795;BME280;51430;52.242;21.118;2023-02-20T00:47:27;100385.80;;;2.48;74.59
33795;BME280;51430;52.242;21.118;2023-02-20T00:50:14;100392.59;;;2.49;74.47
33795;BME280;51430;52.242;21.118;2023-02-20T00:52:59;100395.86;;;2.50;74.26
33795;BME280;51430;52.242;21.118;2023-02-20T00:55:44;100399.64;;;2.50;74.12
33795;BME280;51430;52.242;21.118;2023-02-20T00:58:29;100393.89;;;2.55;73.66
33795;BME280;51430;52.242;21.118;2023-02-20T01:01:15;100395.48;;;2.58;73.89
33795;BME280;51430;52.242;21.118;2023-02-20T01:04:00;100391.07;;;2.61;73.62
33795;BME280;51430;52.242;21.118;2023-02-20T01:06:45;100381.64;;;2.56;73.47
33795;BME280;51430;52.242;21.118;2023-02-20T01:09:30;100384.53;;;2.57;73.51
33795;BME280;51430;52.242;21.118;2023-02-20T01:12:17;100388.63;;;2.58;73.03
33795;BME280;51430;52.242;21.118;2023-02-20T01:15:04;100381.40;;;2.61;73.03
33795;BME280;51430;52.242;21.118;2023-02-20T01:17:49;100384.42;;;2.59;73.00
33795;BME280;51430;52.242;21.118;2023-02-20T01:20:34;100387.67;;;2.56;73.16
33795;BME280;51430;52.242;21.118;2023-02-20T01:23:19;100381.10;;;2.61;73.17
33795;BME280;51430;52.242;21.118;2023-02-20T01:26:04;100379.06;;;2.56;73.07
33795;BME280;51430;52.242;21.118;2023-02-20T01:28:49;100368.64;;;2.55;73.60
33795;BME280;51430;52.242;21.118;2023-02-20T01:31:34;100363.10;;;2.51;73.01
33795;BME280;51430;52.242;21.118;2023-02-20T01:34:20;100357.80;;;2.46;73.40
33795;BME280;51430;52.242;21.118;2023-02-20T01:37:06;100359.55;;;2.46;73.72
33795;BME280;51430;52.242;21.118;2023-02-20T01:39:51;100360.29;;;2.49;73.35
33795;BME280;51430;52.242;21.118;2023-02-20T01:42:36;100362.55;;;2.48;73.48
33795;BME280;51430;52.242;21.118;2023-02-20T01:48:21;100365.48;;;2.48;73.85
33795;BME280;51430;52.242;21.118;2023-02-20T01:51:07;100369.61;;;2.56;73.46
33795;BME280;51430;52.242;21.118;2023-02-20T01:53:53;100361.81;;;2.53;73.48
33795;BME280;51430;52.242;21.118;2023-02-20T01:56:39;100361.07;;;2.55;73.70
33795;BME280;51430;52.242;21.118;2023-02-20T01:59:28;100354.52;;;2.59;73.42
33795;BME280;51430;52.242;21.118;2023-02-20T02:02:14;100350.90;;;2.59;73.20
33795;BME280;51430;52.242;21.118;2023-02-20T02:05:00;100356.66;;;2.60;73.27
33795;BME280;51430;52.242;21.118;2023-02-20T02:07:46;100350.73;;;2.62;73.43
33795;BME280;51430;52.242;21.118;2023-02-20T02:11:02;100355.60;;;2.65;73.50
33795;BME280;51430;52.242;21.118;2023-02-20T02:13:48;100350.95;;;2.65;73.27
33795;BME280;51430;52.242;21.118;2023-02-20T02:16:46;100350.02;;;2.67;73.50
33795;BME280;51430;52.242;21.118;2023-02-20T02:22:45;100338.59;;;2.64;73.36
33795;BME280;51430;52.242;21.118;2023-02-20T02:36:27;100344.39;;;2.62;73.82
33795;BME280;51430;52.242;21.118;2023-02-20T02:39:28;100341.44;;;2.63;73.99
33795;BME280;51430;52.242;21.118;2023-02-20T02:48:19;100333.21;;;2.69;73.62
33795;BME280;51430;52.242;21.118;2023-02-20T02:51:18;100328.06;;;2.69;73.65
33795;BME280;51430;52.242;21.118;2023-02-20T02:54:12;100329.80;;;2.73;73.41
33795;BME280;51430;52.242;21.118;2023-02-20T02:57:26;100338.45;;;2.72;73.54
33795;BME280;51430;52.242;21.118;2023-02-20T03:00:21;100334.68;;;2.71;73.60
33795;BME280;51430;52.242;21.118;2023-02-20T03:03:27;100337.98;;;2.70;73.52
33795;BME280;51430;52.242;21.118;2023-02-20T03:06:24;100328.71;;;2.70;73.15
33795;BME280;51430;52.242;21.118;2023-02-20T03:09:21;100331.80;;;2.71;73.33
33795;BME280;51430;52.242;21.118;2023-02-20T03:12:10;100329.17;;;2.75;73.28
33795;BME280;51430;52.242;21.118;2023-02-20T03:15:04;100333.71;;;2.74;73.46
33795;BME280;51430;52.242;21.118;2023-02-20T03:18:30;100335.05;;;2.71;73.57
33795;BME280;51430;52.242;21.118;2023-02-20T03:21:21;100335.05;;;2.67;73.64
33795;BME280;51430;52.242;21.118;2023-02-20T03:24:08;100339.13;;;2.68;73.79
33795;BME280;51430;52.242;21.118;2023-02-20T03:26:56;100334.09;;;2.69;74.10
33795;BME280;51430;52.242;21.118;2023-02-20T03:29:43;100333.86;;;2.74;73.87
33795;BME280;51430;52.242;21.118;2023-02-20T03:32:29;100335.86;;;2.76;73.77
33795;BME280;51430;52.242;21.118;2023-02-20T03:35:37;100327.41;;;2.64;73.99
33795;BME280;51430;52.242;21.118;2023-02-20T03:38:49;100329.52;;;2.60;74.44
33795;BME280;51430;52.242;21.118;2023-02-20T03:41:58;100330.31;;;2.54;74.58
33795;BME280;51430;52.242;21.118;2023-02-20T03:45:04;100336.44;;;2.55;74.32
33795;BME280;51430;52.242;21.118;2023-02-20T03:47:53;100333.02;;;2.51;74.26
33795;BME280;51430;52.242;21.118;2023-02-20T03:50:41;100329.42;;;2.50;74.65
33795;BME280;51430;52.242;21.118;2023-02-20T03:53:45;100331.41;;;2.48;74.69
33795;BME280;51430;52.242;21.118;2023-02-20T03:56:46;100327.09;;;2.48;74.83
33795;BME280;51430;52.242;21.118;2023-02-20T03:59:50;100325.48;;;2.50;74.43
33795;BME280;51430;52.242;21.118;2023-02-20T04:02:41;100326.19;;;2.49;74.48
33795;BME280;51430;52.242;21.118;2023-02-20T04:05:30;100321.78;;;2.48;74.59
33795;BME280;51430;52.242;21.118;2023-02-20T04:08:31;100325.16;;;2.54;74.59
33795;BME280;51430;52.242;21.118;2023-02-20T04:11:38;100327.35;;;2.55;74.04
33795;BME280;51430;52.242;21.118;2023-02-20T04:14:25;100325.50;;;2.50;74.35
33795;BME280;51430;52.242;21.118;2023-02-20T04:17:15;100323.14;;;2.44;74.66
33795;BME280;51430;52.242;21.118;2023-02-20T04:20:02;100321.49;;;2.51;74.65
33795;BME280;51430;52.242;21.118;2023-02-20T04:22:49;100315.74;;;2.48;74.61
33795;BME280;51430;52.242;21.118;2023-02-20T04:25:41;100311.10;;;2.48;74.75
33795;BME280;51430;52.242;21.118;2023-02-20T04:28:29;100310.52;;;2.46;74.61
33795;BME280;51430;52.242;21.118;2023-02-20T04:31:15;100307.88;;;2.43;74.86
33795;BME280;51430;52.242;21.118;2023-02-20T04:34:01;100310.08;;;2.44;74.64
33795;BME280;51430;52.242;21.118;2023-02-20T04:36:46;100308.54;;;2.40;75.09
33795;BME280;51430;52.242;21.118;2023-02-20T04:39:32;100304.59;;;2.44;75.17
33795;BME280;51430;52.242;21.118;2023-02-20T04:42:17;100297.23;;;2.43;75.09
33795;BME280;51430;52.242;21.118;2023-02-20T04:45:02;100287.27;;;2.43;75.20
33795;BME280;51430;52.242;21.118;2023-02-20T04:47:47;100284.76;;;2.41;75.40
33795;BME280;51430;52.242;21.118;2023-02-20T04:50:34;100284.16;;;2.39;75.44
33795;BME280;51430;52.242;21.118;2023-02-20T04:53:19;100278.09;;;2.40;75.70
33795;BME280;51430;52.242;21.118;2023-02-20T04:56:05;100274.58;;;2.38;75.78
33795;BME280;51430;52.242;21.118;2023-02-20T04:58:50;100281.54;;;2.40;75.95
33795;BME280;51430;52.242;21.118;2023-02-20T05:01:36;100280.25;;;2.46;75.72
33795;BME280;51430;52.242;21.118;2023-02-20T05:04:21;100281.09;;;2.46;75.84
33795;BME280;51430;52.242;21.118;2023-02-20T05:07:06;100280.33;;;2.48;75.92
33795;BME280;51430;52.242;21.118;2023-02-20T05:09:51;100275.59;;;2.50;76.00
33795;BME280;51430;52.242;21.118;2023-02-20T05:12:37;100275.73;;;2.51;76.21
33795;BME280;51430;52.242;21.118;2023-02-20T05:15:22;100259.81;;;2.57;76.00
33795;BME280;51430;52.242;21.118;2023-02-20T05:18:08;100257.04;;;2.61;76.00
33795;BME280;51430;52.242;21.118;2023-02-20T05:20:53;100255.48;;;2.64;75.99
33795;BME280;51430;52.242;21.118;2023-02-20T05:23:57;100256.88;;;2.64;76.03
33795;BME280;51430;52.242;21.118;2023-02-20T05:26:43;100246.81;;;2.66;76.13
33795;BME280;51430;52.242;21.118;2023-02-20T05:29:28;100247.80;;;2.71;75.99
33795;BME280;51430;52.242;21.118;2023-02-20T05:32:14;100249.73;;;2.74;76.09
33795;BME280;51430;52.242;21.118;2023-02-20T05:35:00;100255.40;;;2.81;75.98
33795;BME280;51430;52.242;21.118;2023-02-20T05:37:45;100256.55;;;2.83;76.07
33795;BME280;51430;52.242;21.118;2023-02-20T05:40:30;100252.34;;;2.84;76.29
33795;BME280;51430;52.242;21.118;2023-02-20T05:43:16;100255.01;;;2.86;76.19
33795;BME280;51430;52.242;21.118;2023-02-20T05:46:01;100252.39;;;2.87;76.24
33795;BME280;51430;52.242;21.118;2023-02-20T05:48:48;100248.30;;;2.90;76.38
33795;BME280;51430;52.242;21.118;2023-02-20T05:51:34;100234.98;;;2.87;76.40
33795;BME280;51430;52.242;21.118;2023-02-20T05:54:19;100228.37;;;2.92;76.43
33795;BME280;51430;52.242;21.118;2023-02-20T05:57:06;100225.14;;;2.95;76.20
33795;BME280;51430;52.242;21.118;2023-02-20T05:59:52;100224.14;;;2.94;76.10
33795;BME280;51430;52.242;21.118;2023-02-20T06:02:37;100218.94;;;2.95;76.05
33795;BME280;51430;52.242;21.118;2023-02-20T06:05:22;100220.55;;;3.01;75.88
33795;BME280;51430;52.242;21.118;2023-02-20T06:08:09;100222.15;;;3.04;75.51
33795;BME280;51430;52.242;21.118;2023-02-20T06:10:54;100227.11;;;3.08;75.32
33795;BME280;51430;52.242;21.118;2023-02-20T06:13:41;100228.57;;;3.10;75.25
33795;BME280;51430;52.242;21.118;2023-02-20T06:16:28;100226.88;;;3.17;75.07
33795;BME280;51430;52.242;21.118;2023-02-20T06:19:22;100222.17;;;3.21;74.82
33795;BME280;51430;52.242;21.118;2023-02-20T06:22:07;100216.14;;;3.21;74.86
33795;BME280;51430;52.242;21.118;2023-02-20T06:24:52;100216.77;;;3.26;74.85
33795;BME280;51430;52.242;21.118;2023-02-20T06:27:37;100213.91;;;3.28;74.66
33795;BME280;51430;52.242;21.118;2023-02-20T06:30:23;100211.61;;;3.33;74.54
33795;BME280;51430;52.242;21.118;2023-02-20T06:33:08;100210.58;;;3.40;74.14
33795;BME280;51430;52.242;21.118;2023-02-20T06:35:53;100202.52;;;3.46;74.17
33795;BME280;51430;52.242;21.118;2023-02-20T06:38:40;100205.65;;;3.42;74.25
33795;BME280;51430;52.242;21.118;2023-02-20T06:41:25;100200.23;;;3.50;74.21
33795;BME280;51430;52.242;21.118;2023-02-20T06:44:10;100196.86;;;3.52;74.02
33795;BME280;51430;52.242;21.118;2023-02-20T06:46:56;100196.30;;;3.57;74.09
33795;BME280;51430;52.242;21.118;2023-02-20T06:49:41;100193.81;;;3.65;73.98
33795;BME280;51430;52.242;21.118;2023-02-20T06:59:45;100175.82;;;3.90;73.71
33795;BME280;51430;52.242;21.118;2023-02-20T07:02:33;100178.15;;;3.82;73.51
33795;BME280;51430;52.242;21.118;2023-02-20T07:05:26;100181.98;;;3.90;73.44
33795;BME280;51430;52.242;21.118;2023-02-20T07:08:13;100180.16;;;3.99;73.36
33795;BME280;51430;52.242;21.118;2023-02-20T07:10:58;100183.27;;;4.13;73.14
33795;BME280;51430;52.242;21.118;2023-02-20T07:13:43;100188.34;;;4.21;72.77
33795;BME280;51430;52.242;21.118;2023-02-20T07:16:28;100174.42;;;4.20;73.05
33795;BME280;51430;52.242;21.118;2023-02-20T07:19:15;100167.02;;;4.33;72.68
33795;BME280;51430;52.242;21.118;2023-02-20T07:22:00;100165.09;;;4.40;72.53
33795;BME280;51430;52.242;21.118;2023-02-20T07:24:50;100161.83;;;4.43;72.44
33795;BME280;51430;52.242;21.118;2023-02-20T07:27:35;100163.10;;;4.38;72.51
33795;BME280;51430;52.242;21.118;2023-02-20T07:30:20;100166.94;;;4.53;72.54
33795;BME280;51430;52.242;21.118;2023-02-20T07:33:06;100160.10;;;4.65;72.08
33795;BME280;51430;52.242;21.118;2023-02-20T07:35:51;100161.62;;;4.65;71.97
33795;BME280;51430;52.242;21.118;2023-02-20T07:38:37;100167.13;;;4.66;72.12
33795;BME280;51430;52.242;21.118;2023-02-20T07:41:23;100167.08;;;4.69;72.16
33795;BME280;51430;52.242;21.118;2023-02-20T07:44:09;100167.83;;;4.65;72.41
33795;BME280;51430;52.242;21.118;2023-02-20T07:46:56;100164.02;;;4.81;72.20
33795;BME280;51430;52.242;21.118;2023-02-20T07:49:41;100165.02;;;4.91;71.88
33795;BME280;51430;52.242;21.118;2023-02-20T07:52:26;100155.48;;;4.88;71.77
33795;BME280;51430;52.242;21.118;2023-02-20T07:55:15;100141.63;;;4.77;72.17
33795;BME280;51430;52.242;21.118;2023-02-20T07:58:01;100129.89;;;4.83;72.33
33795;BME280;51430;52.242;21.118;2023-02-20T08:00:46;100118.71;;;4.97;72.18
33795;BME280;51430;52.242;21.118;2023-02-20T08:03:31;100112.75;;;4.99;71.69
33795;BME280;51430;52.242;21.118;2023-02-20T08:06:17;100102.48;;;5.00;71.81
33795;BME280;51430;52.242;21.118;2023-02-20T08:09:03;100102.55;;;5.14;71.89
33795;BME280;51430;52.242;21.118;2023-02-20T08:11:48;100096.71;;;5.13;71.36
33795;BME280;51430;52.242;21.118;2023-02-20T08:14:43;100090.55;;;5.00;71.95
33795;BME280;51430;52.242;21.118;2023-02-20T08:17:30;100083.14;;;4.91;72.77
33795;BME280;51430;52.242;21.118;2023-02-20T08:20:31;100079.67;;;5.03;72.26
33795;BME280;51430;52.242;21.118;2023-02-20T08:23:20;100075.61;;;5.05;72.36
33795;BME280;51430;52.242;21.118;2023-02-20T08:26:07;100075.73;;;5.09;72.27
33795;BME280;51430;52.242;21.118;2023-02-20T08:28:54;100070.24;;;5.25;72.29
33795;BME280;51430;52.242;21.118;2023-02-20T08:31:40;100069.33;;;5.26;72.00
33795;BME280;51430;52.242;21.118;2023-02-20T08:34:28;100055.09;;;5.25;72.70
33795;BME280;51430;52.242;21.118;2023-02-20T08:37:15;100042.63;;;5.30;72.59
33795;BME280;51430;52.242;21.118;2023-02-20T08:40:02;100037.73;;;5.28;73.42
33795;BME280;51430;52.242;21.118;2023-02-20T08:42:52;100039.21;;;5.36;73.76
33795;BME280;51430;52.242;21.118;2023-02-20T08:45:38;100032.20;;;5.14;74.37
33795;BME280;51430;52.242;21.118;2023-02-20T08:48:25;100030.33;;;5.02;75.58
33795;BME280;51430;52.242;21.118;2023-02-20T08:51:11;100024.31;;;5.02;76.27
33795;BME280;51430;52.242;21.118;2023-02-20T08:53:58;100025.30;;;4.85;77.04
33795;BME280;51430;52.242;21.118;2023-02-20T08:56:45;100029.16;;;4.87;77.91
33795;BME280;51430;52.242;21.118;2023-02-20T08:59:32;100018.98;;;4.75;78.42
33795;BME280;51430;52.242;21.118;2023-02-20T09:02:21;100016.29;;;4.59;80.04
33795;BME280;51430;52.242;21.118;2023-02-20T09:05:10;100010.53;;;4.48;81.28
33795;BME280;51430;52.242;21.118;2023-02-20T09:07:56;99995.94;;;4.34;82.24
33795;BME280;51430;52.242;21.118;2023-02-20T09:10:43;99980.55;;;4.29;83.67
33795;BME280;51430;52.242;21.118;2023-02-20T09:13:30;99970.77;;;4.13;85.18
33795;BME280;51430;52.242;21.118;2023-02-20T09:16:21;99961.42;;;4.03;86.89
33795;BME280;51430;52.242;21.118;2023-02-20T09:19:11;99950.51;;;3.92;89.12
33795;BME280;51430;52.242;21.118;2023-02-20T09:22:00;99938.23;;;3.77;90.49
33795;BME280;51430;52.242;21.118;2023-02-20T09:24:46;99931.95;;;3.75;91.14
33795;BME280;51430;52.242;21.118;2023-02-20T09:27:33;99924.17;;;3.57;91.90
33795;BME280;51430;52.242;21.118;2023-02-20T09:30:20;99923.94;;;3.55;93.34
33795;BME280;51430;52.242;21.118;2023-02-20T09:33:08;99923.43;;;3.52;94.40
33795;BME280;51430;52.242;21.118;2023-02-20T09:35:55;99916.80;;;3.47;95.13
33795;BME280;51430;52.242;21.118;2023-02-20T09:38:42;99897.50;;;3.53;95.50
33795;BME280;51430;52.242;21.118;2023-02-20T09:50:50;99846.94;;;3.42;97.82
33795;BME280;51430;52.242;21.118;2023-02-20T09:53:53;99833.61;;;3.43;98.27
33795;BME280;51430;52.242;21.118;2023-02-20T09:56:43;99824.37;;;3.45;97.69
33795;BME280;51430;52.242;21.118;2023-02-20T09:59:36;99813.96;;;3.40;97.72
33795;BME280;51430;52.242;21.118;2023-02-20T10:02:29;99810.73;;;3.37;97.88
33795;BME280;51430;52.242;21.118;2023-02-20T10:05:25;99792.98;;;3.34;98.20
33795;BME280;51430;52.242;21.118;2023-02-20T10:08:17;99786.73;;;3.38;98.29
33795;BME280;51430;52.242;21.118;2023-02-20T10:11:06;99778.48;;;3.35;98.61
33795;BME280;51430;52.242;21.118;2023-02-20T10:19:57;99754.21;;;3.37;99.65
33795;BME280;51430;52.242;21.118;2023-02-20T10:26:20;99729.67;;;3.32;99.61
33795;BME280;51430;52.242;21.118;2023-02-20T10:29:21;99722.36;;;3.31;99.93
33795;BME280;51430;52.242;21.118;2023-02-20T10:32:17;99726.01;;;3.18;99.89
33795;BME280;51430;52.242;21.118;2023-02-20T10:35:10;99726.93;;;3.02;99.97
33795;BME280;51430;52.242;21.118;2023-02-20T10:38:03;99714.95;;;2.88;100.00
33795;BME280;51430;52.242;21.118;2023-02-20T10:41:06;99711.79;;;2.80;100.00
33795;BME280;51430;52.242;21.118;2023-02-20T10:47:06;99699.35;;;2.78;100.00
33795;BME280;51430;52.242;21.118;2023-02-20T10:56:37;99680.75;;;2.81;100.00
33795;BME280;51430;52.242;21.118;2023-02-20T10:59:33;99670.97;;;2.84;100.00
33795;BME280;51430;52.242;21.118;2023-02-20T11:02:26;99660.01;;;2.79;100.00
33795;BME280;51430;52.242;21.118;2023-02-20T11:05:18;99646.01;;;2.81;100.00
33795;BME280;51430;52.242;21.118;2023-02-20T11:08:06;99639.85;;;2.83;100.00
33795;BME280;51430;52.242;21.118;2023-02-20T11:10:57;99634.83;;;2.84;100.00
33795;BME280;51430;52.242;21.118;2023-02-20T11:13:44;99635.45;;;2.88;100.00
33795;BME280;51430;52.242;21.118;2023-02-20T11:16:35;99618.73;;;2.85;100.00
33795;BME280;51430;52.242;21.118;2023-02-20T11:19:32;99609.30;;;2.84;100.00
33795;BME280;51430;52.242;21.118;2023-02-20T11:25:28;99572.04;;;2.80;100.00
33795;BME280;51430;52.242;21.118;2023-02-20T11:28:20;99551.41;;;2.86;100.00
33795;BME280;51430;52.242;21.118;2023-02-20T11:31:07;99485.33;;;2.80;100.00
33795;BME280;51430;52.242;21.118;2023-02-20T11:33:54;99456.63;;;2.73;100.00
33795;BME280;51430;52.242;21.118;2023-02-20T11:36:48;99496.17;;;2.80;100.00
33795;BME280;51430;52.242;21.118;2023-02-20T11:39:36;99482.31;;;2.84;100.00
33795;BME280;51430;52.242;21.118;2023-02-20T11:42:31;99465.47;;;2.90;100.00
33795;BME280;51430;52.242;21.118;2023-02-20T11:45:27;99421.23;;;2.92;100.00
33795;BME280;51430;52.242;21.118;2023-02-20T11:48:17;99454.55;;;3.00;100.00
33795;BME280;51430;52.242;21.118;2023-02-20T11:51:04;99434.30;;;3.10;100.00
33795;BME280;51430;52.242;21.118;2023-02-20T11:54:23;99402.98;;;3.23;100.00
33795;BME280;51430;52.242;21.118;2023-02-20T11:57:22;99393.54;;;3.26;100.00
33795;BME280;51430;52.242;21.118;2023-02-20T12:00:18;99390.67;;;3.36;100.00
33795;BME280;51430;52.242;21.118;2023-02-20T12:05:56;99371.09;;;3.54;100.00
33795;BME280;51430;52.242;21.118;2023-02-20T12:08:51;99353.84;;;3.68;100.00
33795;BME280;51430;52.242;21.118;2023-02-20T12:11:40;99346.83;;;3.77;100.00
33795;BME280;51430;52.242;21.118;2023-02-20T12:14:27;99323.16;;;3.86;100.00
33795;BME280;51430;52.242;21.118;2023-02-20T12:17:36;99309.43;;;3.98;100.00
33795;BME280;51430;52.242;21.118;2023-02-20T12:20:28;99287.92;;;4.11;100.00
33795;BME280;51430;52.242;21.118;2023-02-20T12:35:32;99272.73;;;4.81;98.45
33795;BME280;51430;52.242;21.118;2023-02-20T12:38:35;99255.67;;;4.85;98.71
33795;BME280;51430;52.242;21.118;2023-02-20T12:45:09;99271.97;;;5.06;97.88
33795;BME280;51430;52.242;21.118;2023-02-20T13:00:08;99265.78;;;5.42;97.00
33795;BME280;51430;52.242;21.118;2023-02-20T13:03:19;99260.16;;;5.43;97.19
33795;BME280;51430;52.242;21.118;2023-02-20T13:06:10;99260.55;;;5.49;96.88
33795;BME280;51430;52.242;21.118;2023-02-20T13:12:11;99276.15;;;5.58;96.33
33795;BME280;51430;52.242;21.118;2023-02-20T13:18:31;99251.85;;;5.71;95.53
33795;BME280;51430;52.242;21.118;2023-02-20T13:21:24;99253.69;;;5.84;95.13
33795;BME280;51430;52.242;21.118;2023-02-20T13:24:26;99249.31;;;5.89;95.04
33795;BME280;51430;52.242;21.118;2023-02-20T13:27:30;99233.58;;;6.03;94.14
33795;BME280;51430;52.242;21.118;2023-02-20T13:30:20;99235.09;;;6.08;94.13
33795;BME280;51430;52.242;21.118;2023-02-20T13:33:12;99229.38;;;6.17;93.91
33795;BME280;51430;52.242;21.118;2023-02-20T13:36:04;99228.30;;;6.29;93.38
33795;BME280;51430;52.242;21.118;2023-02-20T13:42:29;99214.39;;;6.39;92.55
33795;BME280;51430;52.242;21.118;2023-02-20T13:45:38;99202.30;;;6.43;92.64
33795;BME280;51430;52.242;21.118;2023-02-20T13:48:36;99193.29;;;6.52;92.47
33795;BME280;51430;52.242;21.118;2023-02-20T13:54:42;99177.77;;;6.62;92.06
33795;BME280;51430;52.242;21.118;2023-02-20T13:57:30;99175.66;;;6.69;91.74
33795;BME280;51430;52.242;21.118;2023-02-20T14:04:04;99174.60;;;6.84;90.61
33795;BME280;51430;52.242;21.118;2023-02-20T14:06:52;99179.41;;;6.93;90.10
33795;BME280;51430;52.242;21.118;2023-02-20T14:09:44;99175.06;;;7.00;89.80
33795;BME280;51430;52.242;21.118;2023-02-20T14:12:33;99170.48;;;7.01;89.91
33795;BME280;51430;52.242;21.118;2023-02-20T14:15:21;99165.33;;;7.00;90.40
33795;BME280;51430;52.242;21.118;2023-02-20T14:18:31;99156.67;;;7.15;89.26
33795;BME280;51430;52.242;21.118;2023-02-20T14:21:20;99147.86;;;7.23;88.56
33795;BME280;51430;52.242;21.118;2023-02-20T14:24:26;99145.38;;;7.24;88.57
33795;BME280;51430;52.242;21.118;2023-02-20T14:27:26;99139.09;;;7.22;88.79
33795;BME280;51430;52.242;21.118;2023-02-20T14:30:16;99137.95;;;7.30;88.34
33795;BME280;51430;52.242;21.118;2023-02-20T14:33:13;99135.33;;;7.26;89.06
33795;BME280;51430;52.242;21.118;2023-02-20T14:36:18;99136.62;;;7.31;88.46
33795;BME280;51430;52.242;21.118;2023-02-20T14:39:15;99126.48;;;7.32;88.81
33795;BME280;51430;52.242;21.118;2023-02-20T14:42:21;99126.66;;;7.38;88.31
33795;BME280;51430;52.242;21.118;2023-02-20T14:45:14;99105.27;;;7.43;88.18
33795;BME280;51430;52.242;21.118;2023-02-20T14:48:01;99086.73;;;7.43;88.33
33795;BME280;51430;52.242;21.118;2023-02-20T14:54:15;99074.30;;;7.59;87.04
33795;BME280;51430;52.242;21.118;2023-02-20T14:57:02;99093.10;;;7.58;87.49
33795;BME280;51430;52.242;21.118;2023-02-20T14:59:50;99090.32;;;7.64;87.53
33795;BME280;51430;52.242;21.118;2023-02-20T15:02:41;99069.82;;;7.67;87.12
33795;BME280;51430;52.242;21.118;2023-02-20T15:05:31;99070.77;;;7.80;86.53
33795;BME280;51430;52.242;21.118;2023-02-20T15:08:22;99061.42;;;7.86;86.05
33795;BME280;51430;52.242;21.118;2023-02-20T15:11:12;99062.73;;;7.84;86.00
33795;BME280;51430;52.242;21.118;2023-02-20T15:14:00;99046.09;;;7.86;86.15
33795;BME280;51430;52.242;21.118;2023-02-20T15:16:48;99029.10;;;7.92;85.75
33795;BME280;51430;52.242;21.118;2023-02-20T15:19:51;99033.81;;;8.00;85.23
33795;BME280;51430;52.242;21.118;2023-02-20T15:22:38;99050.02;;;8.02;85.67
33795;BME280;51430;52.242;21.118;2023-02-20T15:25:29;99054.50;;;8.06;85.22
33795;BME280;51430;52.242;21.118;2023-02-20T15:33:56;99029.82;;;8.18;84.49
33795;BME280;51430;52.242;21.118;2023-02-20T15:36:43;99035.33;;;8.21;84.38
33795;BME280;51430;52.242;21.118;2023-02-20T15:39:29;99033.29;;;8.24;84.20
33795;BME280;51430;52.242;21.118;2023-02-20T15:42:18;99029.30;;;8.28;84.07
33795;BME280;51430;52.242;21.118;2023-02-20T15:45:05;99031.98;;;8.34;83.77
33795;BME280;51430;52.242;21.118;2023-02-20T15:47:52;99044.23;;;8.32;84.08
33795;BME280;51430;52.242;21.118;2023-02-20T15:50:38;99048.66;;;8.37;83.71
33795;BME280;51430;52.242;21.118;2023-02-20T15:53:27;99035.11;;;8.41;83.15
33795;BME280;51430;52.242;21.118;2023-02-20T15:56:15;99024.52;;;8.43;82.87
33795;BME280;51430;52.242;21.118;2023-02-20T15:59:07;99022.61;;;8.43;83.47
33795;BME280;51430;52.242;21.118;2023-02-20T16:01:55;99017.95;;;8.45;83.19
33795;BME280;51430;52.242;21.118;2023-02-20T16:04:42;99012.71;;;8.43;83.13
33795;BME280;51430;52.242;21.118;2023-02-20T16:07:29;99003.38;;;8.48;82.70
33795;BME280;51430;52.242;21.118;2023-02-20T16:10:19;99006.91;;;8.51;82.34
33795;BME280;51430;52.242;21.118;2023-02-20T16:13:20;98995.92;;;8.54;82.50
33795;BME280;51430;52.242;21.118;2023-02-20T16:16:18;98988.50;;;8.53;82.13
33795;BME280;51430;52.242;21.118;2023-02-20T16:19:17;98992.77;;;8.62;81.63
33795;BME280;51430;52.242;21.118;2023-02-20T16:22:03;99006.49;;;8.64;81.63
33795;BME280;51430;52.242;21.118;2023-02-20T16:24:51;99005.52;;;8.61;81.73
33795;BME280;51430;52.242;21.118;2023-02-20T16:27:38;98999.30;;;8.65;81.65
33795;BME280;51430;52.242;21.118;2023-02-20T16:30:37;98986.65;;;8.68;81.31
33795;BME280;51430;52.242;21.118;2023-02-20T16:33:25;98982.77;;;8.69;81.32
33795;BME280;51430;52.242;21.118;2023-02-20T16:36:12;98975.19;;;8.68;81.60
33795;BME280;51430;52.242;21.118;2023-02-20T16:39:10;98972.34;;;8.71;81.73
33795;BME280;51430;52.242;21.118;2023-02-20T16:42:18;98979.02;;;8.73;81.54
33795;BME280;51430;52.242;21.118;2023-02-20T16:45:11;98979.52;;;8.76;81.48
33795;BME280;51430;52.242;21.118;2023-02-20T16:47:58;98979.13;;;8.80;81.39
33795;BME280;51430;52.242;21.118;2023-02-20T16:50:52;98973.20;;;8.78;82.07